sensor_id;sensor_type;location;lat;lon;timestamp;temperature;humidity
75457;SHT31;64036;48.266;14.192;2024-01-30T00:01:59;0.83;78.54
75457;SHT31;64036;48.266;14.192;2024-01-30T00:04:58;0.77;78.50
75457;SHT31;64036;48.266;14.192;2024-01-30T00:07:50;0.73;78.48
75457;SHT31;64036;48.266;14.192;2024-01-30T00:10:48;0.66;78.36
75457;SHT31;64036;48.266;14.192;2024-01-30T00:13:52;0.58;78.22
75457;SHT31;64036;48.266;14.192;2024-01-30T00:29:46;0.33;78.52
75457;SHT31;64036;48.266;14.192;2024-01-30T00:32:41;0.24;78.39
75457;SHT31;64036;48.266;14.192;2024-01-30T00:35:35;0.19;78.48
75457;SHT31;64036;48.266;14.192;2024-01-30T00:42:13;0.09;78.39
75457;SHT31;64036;48.266;14.192;2024-01-30T00:45:13;0.05;78.48
75457;SHT31;64036;48.266;14.192;2024-01-30T00:47:53;0.02;78.50
75457;SHT31;64036;48.266;14.192;2024-01-30T00:51:12;-0.01;78.50
75457;SHT31;64036;48.266;14.192;2024-01-30T00:53:46;-0.02;78.56
75457;SHT31;64036;48.266;14.192;2024-01-30T00:56:55;-0.07;78.54
75457;SHT31;64036;48.266;14.192;2024-01-30T01:06:27;-0.18;78.77
75457;SHT31;64036;48.266;14.192;2024-01-30T01:13:09;-0.13;79.38
75457;SHT31;64036;48.266;14.192;2024-01-30T01:18:59;0.04;79.77
75457;SHT31;64036;48.266;14.192;2024-01-30T01:22:10;0.09;79.75
75457;SHT31;64036;48.266;14.192;2024-01-30T01:32:13;0.34;80.40
75457;SHT31;64036;48.266;14.192;2024-01-30T01:38:31;0.42;80.19
75457;SHT31;64036;48.266;14.192;2024-01-30T01:41:37;0.44;80.12
75457;SHT31;64036;48.266;14.192;2024-01-30T01:44:25;0.46;80.09
75457;SHT31;64036;48.266;14.192;2024-01-30T01:50:26;0.45;79.96
75457;SHT31;64036;48.266;14.192;2024-01-30T01:53:31;0.43;79.89
75457;SHT31;64036;48.266;14.192;2024-01-30T02:18:54;0.47;79.92
75457;SHT31;64036;48.266;14.192;2024-01-30T02:31:26;0.37;79.67
75457;SHT31;64036;48.266;14.192;2024-01-30T02:46:39;0.37;79.77
75457;SHT31;64036;48.266;14.192;2024-01-30T02:49:42;0.38;79.75
75457;SHT31;64036;48.266;14.192;2024-01-30T02:52:54;0.36;79.70
75457;SHT31;64036;48.266;14.192;2024-01-30T02:55:50;0.36;79.70
75457;SHT31;64036;48.266;14.192;2024-01-30T02:59:19;0.35;79.62
75457;SHT31;64036;48.266;14.192;2024-01-30T03:02:41;0.34;79.61
75457;SHT31;64036;48.266;14.192;2024-01-30T03:05:42;0.34;79.59
75457;SHT31;64036;48.266;14.192;2024-01-30T03:08:55;0.32;79.50
75457;SHT31;64036;48.266;14.192;2024-01-30T03:11:51;0.30;79.49
75457;SHT31;64036;48.266;14.192;2024-01-30T03:17:44;0.26;79.40
75457;SHT31;64036;48.266;14.192;2024-01-30T03:20:43;0.22;79.28
75457;SHT31;64036;48.266;14.192;2024-01-30T03:26:44;0.16;79.29
75457;SHT31;64036;48.266;14.192;2024-01-30T03:30:00;0.15;79.28
75457;SHT31;64036;48.266;14.192;2024-01-30T03:33:15;0.12;79.17
75457;SHT31;64036;48.266;14.192;2024-01-30T03:36:08;0.07;79.09
75457;SHT31;64036;48.266;14.192;2024-01-30T03:42:35;0.02;79.12
75457;SHT31;64036;48.266;14.192;2024-01-30T03:48:30;0.00;79.10
75457;SHT31;64036;48.266;14.192;2024-01-30T03:51:23;0.01;79.20
75457;SHT31;64036;48.266;14.192;2024-01-30T03:54:21;0.01;79.29
75457;SHT31;64036;48.266;14.192;2024-01-30T04:00:33;0.02;79.30
75457;SHT31;64036;48.266;14.192;2024-01-30T04:03:50;0.01;79.30
75457;SHT31;64036;48.266;14.192;2024-01-30T04:13:24;-0.05;79.21
75457;SHT31;64036;48.266;14.192;2024-01-30T04:16:31;-0.08;79.25
75457;SHT31;64036;48.266;14.192;2024-01-30T04:25:54;-0.06;79.51
75457;SHT31;64036;48.266;14.192;2024-01-30T04:29:15;-0.04;79.73
75457;SHT31;64036;48.266;14.192;2024-01-30T04:32:13;-0.01;79.90
75457;SHT31;64036;48.266;14.192;2024-01-30T04:35:12;0.01;80.00
75457;SHT31;64036;48.266;14.192;2024-01-30T04:38:25;0.04;80.00
75457;SHT31;64036;48.266;14.192;2024-01-30T04:45:02;0.00;79.85
75457;SHT31;64036;48.266;14.192;2024-01-30T04:54:43;0.01;80.07
75457;SHT31;64036;48.266;14.192;2024-01-30T04:57:50;0.01;80.03
75457;SHT31;64036;48.266;14.192;2024-01-30T05:00:42;-0.01;80.02
75457;SHT31;64036;48.266;14.192;2024-01-30T05:07:39;-0.04;80.13
75457;SHT31;64036;48.266;14.192;2024-01-30T05:16:45;-0.11;80.14
75457;SHT31;64036;48.266;14.192;2024-01-30T05:20:33;-0.15;80.10
75457;SHT31;64036;48.266;14.192;2024-01-30T05:26:48;-0.20;80.20
75457;SHT31;64036;48.266;14.192;2024-01-30T05:33:36;-0.30;80.01
75457;SHT31;64036;48.266;14.192;2024-01-30T05:40:24;-0.52;79.79
75457;SHT31;64036;48.266;14.192;2024-01-30T05:47:12;-0.71;79.91
75457;SHT31;64036;48.266;14.192;2024-01-30T05:53:21;-0.73;80.01
75457;SHT31;64036;48.266;14.192;2024-01-30T06:05:51;-0.90;79.55
75457;SHT31;64036;48.266;14.192;2024-01-30T06:15:22;-0.97;79.61
75457;SHT31;64036;48.266;14.192;2024-01-30T06:18:17;-1.01;79.50
75457;SHT31;64036;48.266;14.192;2024-01-30T06:24:23;-1.05;79.62
75457;SHT31;64036;48.266;14.192;2024-01-30T06:40:33;-1.04;79.89
75457;SHT31;64036;48.266;14.192;2024-01-30T06:43:42;-1.03;80.00
75457;SHT31;64036;48.266;14.192;2024-01-30T06:50:01;-0.98;80.32
75457;SHT31;64036;48.266;14.192;2024-01-30T06:55:31;-0.73;80.40
75457;SHT31;64036;48.266;14.192;2024-01-30T07:10:25;-0.16;79.82
75457;SHT31;64036;48.266;14.192;2024-01-30T07:13:32;-0.42;79.57
75457;SHT31;64036;48.266;14.192;2024-01-30T07:29:11;-0.82;80.30
75457;SHT31;64036;48.266;14.192;2024-01-30T07:31:44;-0.88;80.96
75457;SHT31;64036;48.266;14.192;2024-01-30T07:34:28;-0.93;81.70
75457;SHT31;64036;48.266;14.192;2024-01-30T07:37:26;-0.99;82.27
75457;SHT31;64036;48.266;14.192;2024-01-30T07:40:08;-1.00;82.59
75457;SHT31;64036;48.266;14.192;2024-01-30T07:46:13;-0.93;82.56
75457;SHT31;64036;48.266;14.192;2024-01-30T07:49:32;-0.91;82.41
75457;SHT31;64036;48.266;14.192;2024-01-30T07:52:11;-0.87;82.39
75457;SHT31;64036;48.266;14.192;2024-01-30T07:58:47;-0.75;82.39
75457;SHT31;64036;48.266;14.192;2024-01-30T08:04:51;-0.56;82.35
75457;SHT31;64036;48.266;14.192;2024-01-30T08:11:08;-0.48;82.41
75457;SHT31;64036;48.266;14.192;2024-01-30T08:13:39;-0.46;82.48
75457;SHT31;64036;48.266;14.192;2024-01-30T08:16:50;-0.39;82.57
75457;SHT31;64036;48.266;14.192;2024-01-30T08:20:05;-0.33;82.58
75457;SHT31;64036;48.266;14.192;2024-01-30T08:22:45;-0.31;82.66
75457;SHT31;64036;48.266;14.192;2024-01-30T08:25:39;-0.33;82.78
75457;SHT31;64036;48.266;14.192;2024-01-30T08:28:52;-0.28;82.98
75457;SHT31;64036;48.266;14.192;2024-01-30T08:31:58;-0.22;83.10
75457;SHT31;64036;48.266;14.192;2024-01-30T08:35:09;-0.23;83.13
75457;SHT31;64036;48.266;14.192;2024-01-30T08:37:49;-0.22;83.29
75457;SHT31;64036;48.266;14.192;2024-01-30T08:40:22;-0.19;83.34
75457;SHT31;64036;48.266;14.192;2024-01-30T08:42:53;-0.14;83.38
75457;SHT31;64036;48.266;14.192;2024-01-30T08:45:59;-0.07;83.36
75457;SHT31;64036;48.266;14.192;2024-01-30T08:49:00;0.00;83.28
75457;SHT31;64036;48.266;14.192;2024-01-30T08:52:04;-0.01;83.23
75457;SHT31;64036;48.266;14.192;2024-01-30T08:55:05;-0.01;83.30
75457;SHT31;64036;48.266;14.192;2024-01-30T08:57:51;-0.04;83.44
75457;SHT31;64036;48.266;14.192;2024-01-30T09:00:35;-0.11;83.37
75457;SHT31;64036;48.266;14.192;2024-01-30T09:03:25;-0.04;83.48
75457;SHT31;64036;48.266;14.192;2024-01-30T09:06:13;0.02;83.41
75457;SHT31;64036;48.266;14.192;2024-01-30T09:17:32;0.14;83.35
75457;SHT31;64036;48.266;14.192;2024-01-30T09:20:23;0.19;83.21
75457;SHT31;64036;48.266;14.192;2024-01-30T09:23:07;0.21;83.15
75457;SHT31;64036;48.266;14.192;2024-01-30T09:26:10;0.27;83.03
75457;SHT31;64036;48.266;14.192;2024-01-30T09:29:14;0.19;83.00
75457;SHT31;64036;48.266;14.192;2024-01-30T09:32:11;0.15;83.10
75457;SHT31;64036;48.266;14.192;2024-01-30T09:34:59;0.10;83.14
75457;SHT31;64036;48.266;14.192;2024-01-30T09:37:28;0.02;83.34
75457;SHT31;64036;48.266;14.192;2024-01-30T09:40:26;0.01;83.64
75457;SHT31;64036;48.266;14.192;2024-01-30T09:43:11;0.03;83.67
75457;SHT31;64036;48.266;14.192;2024-01-30T09:49:05;0.05;83.69
75457;SHT31;64036;48.266;14.192;2024-01-30T09:51:52;0.05;83.58
75457;SHT31;64036;48.266;14.192;2024-01-30T09:54:26;0.11;83.59
75457;SHT31;64036;48.266;14.192;2024-01-30T09:57:09;0.24;83.57
75457;SHT31;64036;48.266;14.192;2024-01-30T10:00:37;0.28;83.24
75457;SHT31;64036;48.266;14.192;2024-01-30T10:06:31;0.35;83.12
75457;SHT31;64036;48.266;14.192;2024-01-30T10:09:03;0.39;83.09
75457;SHT31;64036;48.266;14.192;2024-01-30T10:11:53;0.43;82.87
75457;SHT31;64036;48.266;14.192;2024-01-30T10:17:47;0.28;82.67
75457;SHT31;64036;48.266;14.192;2024-01-30T10:23:43;0.31;82.94
75457;SHT31;64036;48.266;14.192;2024-01-30T10:26:45;0.36;82.96
75457;SHT31;64036;48.266;14.192;2024-01-30T10:29:27;0.48;83.01
75457;SHT31;64036;48.266;14.192;2024-01-30T10:32:04;0.47;82.73
75457;SHT31;64036;48.266;14.192;2024-01-30T10:37:42;0.58;82.79
75457;SHT31;64036;48.266;14.192;2024-01-30T10:40:26;0.49;82.44
75457;SHT31;64036;48.266;14.192;2024-01-30T10:42:56;0.38;82.54
75457;SHT31;64036;48.266;14.192;2024-01-30T10:45:41;0.30;82.86
75457;SHT31;64036;48.266;14.192;2024-01-30T10:57:34;0.33;83.30
75457;SHT31;64036;48.266;14.192;2024-01-30T11:00:24;0.41;83.37
75457;SHT31;64036;48.266;14.192;2024-01-30T11:03:23;0.53;83.22
75457;SHT31;64036;48.266;14.192;2024-01-30T11:06:24;0.69;83.21
75457;SHT31;64036;48.266;14.192;2024-01-30T11:12:12;0.85;82.61
75457;SHT31;64036;48.266;14.192;2024-01-30T11:18:12;0.92;82.41
75457;SHT31;64036;48.266;14.192;2024-01-30T11:21:38;0.91;82.25
75457;SHT31;64036;48.266;14.192;2024-01-30T11:24:21;0.79;82.03
75457;SHT31;64036;48.266;14.192;2024-01-30T11:26:54;0.73;82.10
75457;SHT31;64036;48.266;14.192;2024-01-30T11:29:34;0.70;82.24
75457;SHT31;64036;48.266;14.192;2024-01-30T11:32:06;0.70;82.47
75457;SHT31;64036;48.266;14.192;2024-01-30T11:34:40;0.84;82.62
75457;SHT31;64036;48.266;14.192;2024-01-30T11:37:17;1.00;82.53
75457;SHT31;64036;48.266;14.192;2024-01-30T11:39:51;1.03;82.16
75457;SHT31;64036;48.266;14.192;2024-01-30T11:42:33;1.04;82.04
75457;SHT31;64036;48.266;14.192;2024-01-30T11:45:07;1.06;82.00
75457;SHT31;64036;48.266;14.192;2024-01-30T11:47:36;1.03;81.83
75457;SHT31;64036;48.266;14.192;2024-01-30T11:50:10;0.98;81.87
75457;SHT31;64036;48.266;14.192;2024-01-30T11:52:57;1.02;82.08
75457;SHT31;64036;48.266;14.192;2024-01-30T11:55:35;1.14;82.11
75457;SHT31;64036;48.266;14.192;2024-01-30T11:58:09;1.18;81.78
75457;SHT31;64036;48.266;14.192;2024-01-30T12:00:38;1.15;81.64
75457;SHT31;64036;48.266;14.192;2024-01-30T12:03:12;1.20;81.79
75457;SHT31;64036;48.266;14.192;2024-01-30T12:05:46;1.28;81.76
75457;SHT31;64036;48.266;14.192;2024-01-30T12:08:15;1.25;81.47
75457;SHT31;64036;48.266;14.192;2024-01-30T12:10:55;1.18;81.28
75457;SHT31;64036;48.266;14.192;2024-01-30T12:13:32;1.16;81.38
75457;SHT31;64036;48.266;14.192;2024-01-30T12:16:16;1.16;81.47
75457;SHT31;64036;48.266;14.192;2024-01-30T12:19:20;1.16;81.54
75457;SHT31;64036;48.266;14.192;2024-01-30T12:22:10;1.19;81.64
75457;SHT31;64036;48.266;14.192;2024-01-30T12:27:31;1.23;81.65
75457;SHT31;64036;48.266;14.192;2024-01-30T12:30:15;1.34;81.68
75457;SHT31;64036;48.266;14.192;2024-01-30T12:33:15;1.47;81.58
75457;SHT31;64036;48.266;14.192;2024-01-30T12:36:09;1.52;81.34
75457;SHT31;64036;48.266;14.192;2024-01-30T12:38:43;1.54;81.27
75457;SHT31;64036;48.266;14.192;2024-01-30T12:41:32;1.54;80.99
75457;SHT31;64036;48.266;14.192;2024-01-30T12:44:17;1.52;80.76
75457;SHT31;64036;48.266;14.192;2024-01-30T12:46:46;1.39;80.83
75457;SHT31;64036;48.266;14.192;2024-01-30T12:49:28;1.39;80.90
75457;SHT31;64036;48.266;14.192;2024-01-30T12:52:03;1.37;80.89
75457;SHT31;64036;48.266;14.192;2024-01-30T12:54:33;1.21;81.03
75457;SHT31;64036;48.266;14.192;2024-01-30T13:06:07;1.06;81.50
75457;SHT31;64036;48.266;14.192;2024-01-30T13:08:41;1.09;81.71
75457;SHT31;64036;48.266;14.192;2024-01-30T13:11:43;1.17;81.62
75457;SHT31;64036;48.266;14.192;2024-01-30T13:14:41;1.14;81.63
75457;SHT31;64036;48.266;14.192;2024-01-30T13:17:16;1.12;81.66
75457;SHT31;64036;48.266;14.192;2024-01-30T13:20:04;1.19;81.73
75457;SHT31;64036;48.266;14.192;2024-01-30T13:22:48;1.25;81.53
75457;SHT31;64036;48.266;14.192;2024-01-30T13:25:37;1.28;81.39
75457;SHT31;64036;48.266;14.192;2024-01-30T13:28:21;1.30;81.33
75457;SHT31;64036;48.266;14.192;2024-01-30T13:30:52;1.34;81.33
75457;SHT31;64036;48.266;14.192;2024-01-30T13:33:31;1.31;81.18
75457;SHT31;64036;48.266;14.192;2024-01-30T13:36:10;1.31;81.20
75457;SHT31;64036;48.266;14.192;2024-01-30T13:38:50;1.34;81.19
75457;SHT31;64036;48.266;14.192;2024-01-30T13:41:41;1.40;81.30
75457;SHT31;64036;48.266;14.192;2024-01-30T13:44:19;1.46;81.24
75457;SHT31;64036;48.266;14.192;2024-01-30T13:47:16;1.37;80.99
75457;SHT31;64036;48.266;14.192;2024-01-30T13:50:01;1.38;81.16
75457;SHT31;64036;48.266;14.192;2024-01-30T13:52:41;1.35;80.84
75457;SHT31;64036;48.266;14.192;2024-01-30T13:55:15;1.36;80.96
75457;SHT31;64036;48.266;14.192;2024-01-30T13:57:51;1.41;81.09
75457;SHT31;64036;48.266;14.192;2024-01-30T14:00:17;1.44;81.00
75457;SHT31;64036;48.266;14.192;2024-01-30T14:05:50;1.33;81.17
75457;SHT31;64036;48.266;14.192;2024-01-30T14:08:35;1.36;81.25
75457;SHT31;64036;48.266;14.192;2024-01-30T14:11:12;1.32;81.28
75457;SHT31;64036;48.266;14.192;2024-01-30T14:16:51;1.37;81.29
75457;SHT31;64036;48.266;14.192;2024-01-30T14:19:40;1.41;81.17
75457;SHT31;64036;48.266;14.192;2024-01-30T14:22:20;1.42;81.01
75457;SHT31;64036;48.266;14.192;2024-01-30T14:28:16;1.34;80.89
75457;SHT31;64036;48.266;14.192;2024-01-30T14:30:57;1.38;80.99
75457;SHT31;64036;48.266;14.192;2024-01-30T14:33:55;1.44;81.05
75457;SHT31;64036;48.266;14.192;2024-01-30T14:36:22;1.48;81.00
75457;SHT31;64036;48.266;14.192;2024-01-30T14:39:23;1.53;81.00
75457;SHT31;64036;48.266;14.192;2024-01-30T14:42:09;1.58;80.90
75457;SHT31;64036;48.266;14.192;2024-01-30T14:44:46;1.60;80.69
75457;SHT31;64036;48.266;14.192;2024-01-30T14:47:34;1.61;80.60
75457;SHT31;64036;48.266;14.192;2024-01-30T14:50:16;1.57;80.50
75457;SHT31;64036;48.266;14.192;2024-01-30T14:53:15;1.49;80.36
75457;SHT31;64036;48.266;14.192;2024-01-30T14:59:00;1.45;80.55
75457;SHT31;64036;48.266;14.192;2024-01-30T15:02:12;1.45;80.68
75457;SHT31;64036;48.266;14.192;2024-01-30T15:07:36;1.39;80.70
75457;SHT31;64036;48.266;14.192;2024-01-30T15:10:27;1.40;80.73
75457;SHT31;64036;48.266;14.192;2024-01-30T15:13:09;1.41;80.69
75457;SHT31;64036;48.266;14.192;2024-01-30T15:16:02;1.38;80.68
75457;SHT31;64036;48.266;14.192;2024-01-30T15:18:39;1.29;80.71
75457;SHT31;64036;48.266;14.192;2024-01-30T15:21:49;1.22;80.85
75457;SHT31;64036;48.266;14.192;2024-01-30T15:24:35;1.14;80.96
75457;SHT31;64036;48.266;14.192;2024-01-30T15:27:12;1.08;81.09
75457;SHT31;64036;48.266;14.192;2024-01-30T15:30:01;1.08;81.26
75457;SHT31;64036;48.266;14.192;2024-01-30T15:32:31;1.04;81.23
75457;SHT31;64036;48.266;14.192;2024-01-30T15:35:22;0.94;81.28
75457;SHT31;64036;48.266;14.192;2024-01-30T15:38:06;0.81;81.55
75457;SHT31;64036;48.266;14.192;2024-01-30T15:41:20;0.76;81.80
75457;SHT31;64036;48.266;14.192;2024-01-30T15:44:05;0.72;81.82
75457;SHT31;64036;48.266;14.192;2024-01-30T15:46:51;0.73;81.91
75457;SHT31;64036;48.266;14.192;2024-01-30T15:49:38;0.76;81.89
75457;SHT31;64036;48.266;14.192;2024-01-30T15:52:39;0.72;81.93
75457;SHT31;64036;48.266;14.192;2024-01-30T15:55:38;0.75;81.92
75457;SHT31;64036;48.266;14.192;2024-01-30T15:58:29;0.77;81.90
75457;SHT31;64036;48.266;14.192;2024-01-30T16:01:16;0.71;81.90
75457;SHT31;64036;48.266;14.192;2024-01-30T16:04:19;0.69;81.91
75457;SHT31;64036;48.266;14.192;2024-01-30T16:07:12;0.66;82.00
75457;SHT31;64036;48.266;14.192;2024-01-30T16:10:10;0.64;82.09
75457;SHT31;64036;48.266;14.192;2024-01-30T16:13:32;0.57;82.27
75457;SHT31;64036;48.266;14.192;2024-01-30T16:19:11;0.56;82.55
75457;SHT31;64036;48.266;14.192;2024-01-30T16:22:10;0.62;82.60
75457;SHT31;64036;48.266;14.192;2024-01-30T16:25:02;0.59;82.60
75457;SHT31;64036;48.266;14.192;2024-01-30T16:28:00;0.55;82.63
75457;SHT31;64036;48.266;14.192;2024-01-30T16:30:54;0.58;82.61
75457;SHT31;64036;48.266;14.192;2024-01-30T16:33:55;0.58;82.53
75457;SHT31;64036;48.266;14.192;2024-01-30T16:36:44;0.53;82.57
75457;SHT31;64036;48.266;14.192;2024-01-30T16:39:16;0.55;82.59
75457;SHT31;64036;48.266;14.192;2024-01-30T16:41:44;0.58;82.62
75457;SHT31;64036;48.266;14.192;2024-01-30T16:44:36;0.61;82.54
75457;SHT31;64036;48.266;14.192;2024-01-30T16:47:06;0.63;82.45
75457;SHT31;64036;48.266;14.192;2024-01-30T16:50:07;0.67;82.42
75457;SHT31;64036;48.266;14.192;2024-01-30T16:53:19;0.69;82.40
75457;SHT31;64036;48.266;14.192;2024-01-30T16:56:21;0.69;82.30
75457;SHT31;64036;48.266;14.192;2024-01-30T16:59:29;0.70;82.33
75457;SHT31;64036;48.266;14.192;2024-01-30T17:02:25;0.70;82.29
75457;SHT31;64036;48.266;14.192;2024-01-30T17:04:59;0.69;82.19
75457;SHT31;64036;48.266;14.192;2024-01-30T17:10:59;0.66;82.21
75457;SHT31;64036;48.266;14.192;2024-01-30T17:14:12;0.57;82.21
75457;SHT31;64036;48.266;14.192;2024-01-30T17:20:05;0.48;82.53
75457;SHT31;64036;48.266;14.192;2024-01-30T17:22:55;0.51;82.58
75457;SHT31;64036;48.266;14.192;2024-01-30T17:26:02;0.49;82.53
75457;SHT31;64036;48.266;14.192;2024-01-30T17:28:49;0.50;82.66
75457;SHT31;64036;48.266;14.192;2024-01-30T17:34:57;0.60;82.66
75457;SHT31;64036;48.266;14.192;2024-01-30T17:47:27;0.73;82.48
75457;SHT31;64036;48.266;14.192;2024-01-30T17:50:28;0.77;82.50
75457;SHT31;64036;48.266;14.192;2024-01-30T17:53:02;0.80;82.43
75457;SHT31;64036;48.266;14.192;2024-01-30T17:55:49;0.78;82.29
75457;SHT31;64036;48.266;14.192;2024-01-30T17:58:34;0.74;82.25
75457;SHT31;64036;48.266;14.192;2024-01-30T18:04:52;0.78;82.36
75457;SHT31;64036;48.266;14.192;2024-01-30T18:07:51;0.80;82.33
75457;SHT31;64036;48.266;14.192;2024-01-30T18:10:53;0.81;82.39
75457;SHT31;64036;48.266;14.192;2024-01-30T18:20:34;0.86;82.31
75457;SHT31;64036;48.266;14.192;2024-01-30T18:23:28;0.86;82.21
75457;SHT31;64036;48.266;14.192;2024-01-30T18:26:25;0.84;82.15
75457;SHT31;64036;48.266;14.192;2024-01-30T18:29:18;0.80;82.11
75457;SHT31;64036;48.266;14.192;2024-01-30T18:32:57;0.77;82.16
75457;SHT31;64036;48.266;14.192;2024-01-30T18:36:03;0.74;82.21
75457;SHT31;64036;48.266;14.192;2024-01-30T18:41:59;0.70;82.39
75457;SHT31;64036;48.266;14.192;2024-01-30T18:44:48;0.71;82.50
75457;SHT31;64036;48.266;14.192;2024-01-30T18:47:30;0.66;82.42
75457;SHT31;64036;48.266;14.192;2024-01-30T18:53:15;0.59;82.51
75457;SHT31;64036;48.266;14.192;2024-01-30T18:56:15;0.54;82.54
75457;SHT31;64036;48.266;14.192;2024-01-30T18:59:40;0.43;82.61
75457;SHT31;64036;48.266;14.192;2024-01-30T19:08:52;0.48;82.98
75457;SHT31;64036;48.266;14.192;2024-01-30T19:18:02;0.54;82.92
75457;SHT31;64036;48.266;14.192;2024-01-30T19:21:12;0.55;82.82
75457;SHT31;64036;48.266;14.192;2024-01-30T19:24:23;0.57;82.85
75457;SHT31;64036;48.266;14.192;2024-01-30T19:27:47;0.59;82.71
75457;SHT31;64036;48.266;14.192;2024-01-30T19:31:05;0.60;82.61
75457;SHT31;64036;48.266;14.192;2024-01-30T19:33:42;0.61;82.66
75457;SHT31;64036;48.266;14.192;2024-01-30T19:42:40;0.67;82.65
75457;SHT31;64036;48.266;14.192;2024-01-30T19:45:40;0.68;82.60
75457;SHT31;64036;48.266;14.192;2024-01-30T19:48:32;0.67;82.52
75457;SHT31;64036;48.266;14.192;2024-01-30T19:51:08;0.68;82.58
75457;SHT31;64036;48.266;14.192;2024-01-30T19:53:37;0.71;82.70
75457;SHT31;64036;48.266;14.192;2024-01-30T19:56:06;0.76;82.76
75457;SHT31;64036;48.266;14.192;2024-01-30T19:58:37;0.82;82.78
75457;SHT31;64036;48.266;14.192;2024-01-30T20:01:25;0.85;82.70
75457;SHT31;64036;48.266;14.192;2024-01-30T20:03:51;0.88;82.64
75457;SHT31;64036;48.266;14.192;2024-01-30T20:06:42;0.89;82.55
75457;SHT31;64036;48.266;14.192;2024-01-30T20:16:50;0.85;82.30
75457;SHT31;64036;48.266;14.192;2024-01-30T20:20:01;0.80;82.26
75457;SHT31;64036;48.266;14.192;2024-01-30T20:26:05;0.79;82.34
75457;SHT31;64036;48.266;14.192;2024-01-30T20:28:51;0.69;82.20
75457;SHT31;64036;48.266;14.192;2024-01-30T20:31:36;0.63;82.28
75457;SHT31;64036;48.266;14.192;2024-01-30T20:34:35;0.61;82.43
75457;SHT31;64036;48.266;14.192;2024-01-30T20:40:40;0.64;82.60
75457;SHT31;64036;48.266;14.192;2024-01-30T20:43:30;0.65;82.55
75457;SHT31;64036;48.266;14.192;2024-01-30T20:45:56;0.69;82.64
75457;SHT31;64036;48.266;14.192;2024-01-30T20:48:46;0.72;82.63
75457;SHT31;64036;48.266;14.192;2024-01-30T20:54:19;0.72;82.40
75457;SHT31;64036;48.266;14.192;2024-01-30T20:57:14;0.72;82.50
75457;SHT31;64036;48.266;14.192;2024-01-30T20:59:49;0.73;82.50
75457;SHT31;64036;48.266;14.192;2024-01-30T21:05:24;0.63;82.36
75457;SHT31;64036;48.266;14.192;2024-01-30T21:08:12;0.63;82.41
75457;SHT31;64036;48.266;14.192;2024-01-30T21:10:58;0.64;82.41
75457;SHT31;64036;48.266;14.192;2024-01-30T21:14:06;0.65;82.41
75457;SHT31;64036;48.266;14.192;2024-01-30T21:17:13;0.64;82.41
75457;SHT31;64036;48.266;14.192;2024-01-30T21:23:15;0.63;82.40
75457;SHT31;64036;48.266;14.192;2024-01-30T21:26:16;0.61;82.38
75457;SHT31;64036;48.266;14.192;2024-01-30T21:28:41;0.60;82.40
75457;SHT31;64036;48.266;14.192;2024-01-30T21:31:33;0.58;82.43
75457;SHT31;64036;48.266;14.192;2024-01-30T21:34:36;0.59;82.43
75457;SHT31;64036;48.266;14.192;2024-01-30T21:40:11;0.51;82.26
75457;SHT31;64036;48.266;14.192;2024-01-30T21:43:01;0.51;82.41
75457;SHT31;64036;48.266;14.192;2024-01-30T21:45:35;0.53;82.44
75457;SHT31;64036;48.266;14.192;2024-01-30T21:48:06;0.50;82.25
75457;SHT31;64036;48.266;14.192;2024-01-30T21:50:56;0.46;82.20
75457;SHT31;64036;48.266;14.192;2024-01-30T21:53:22;0.42;82.32
75457;SHT31;64036;48.266;14.192;2024-01-30T21:55:55;0.46;82.57
75457;SHT31;64036;48.266;14.192;2024-01-30T21:58:58;0.44;82.41
75457;SHT31;64036;48.266;14.192;2024-01-30T22:01:38;0.43;82.48
75457;SHT31;64036;48.266;14.192;2024-01-30T22:04:04;0.43;82.45
75457;SHT31;64036;48.266;14.192;2024-01-30T22:06:41;0.46;82.48
75457;SHT31;64036;48.266;14.192;2024-01-30T22:09:11;0.46;82.39
75457;SHT31;64036;48.266;14.192;2024-01-30T22:11:50;0.45;82.38
75457;SHT31;64036;48.266;14.192;2024-01-30T22:14:59;0.43;82.41
75457;SHT31;64036;48.266;14.192;2024-01-30T22:20:37;0.35;82.48
75457;SHT31;64036;48.266;14.192;2024-01-30T22:30:50;0.38;82.59
75457;SHT31;64036;48.266;14.192;2024-01-30T22:51:02;0.26;82.47
75457;SHT31;64036;48.266;14.192;2024-01-30T22:57:32;0.25;82.50
75457;SHT31;64036;48.266;14.192;2024-01-30T23:00:50;0.23;82.52
75457;SHT31;64036;48.266;14.192;2024-01-30T23:14:17;0.21;82.67
75457;SHT31;64036;48.266;14.192;2024-01-30T23:21:00;0.21;82.52
75457;SHT31;64036;48.266;14.192;2024-01-30T23:23:57;0.14;82.34
75457;SHT31;64036;48.266;14.192;2024-01-30T23:30:21;0.07;82.51
75457;SHT31;64036;48.266;14.192;2024-01-30T23:33:15;0.07;82.70
75457;SHT31;64036;48.266;14.192;2024-01-30T23:36:04;0.10;82.89
75457;SHT31;64036;48.266;14.192;2024-01-30T23:39:05;0.15;82.95
75457;SHT31;64036;48.266;14.192;2024-01-30T23:42:01;0.19;82.88
75457;SHT31;64036;48.266;14.192;2024-01-30T23:45:41;0.10;82.62
75457;SHT31;64036;48.266;14.192;2024-01-30T23:48:29;-0.03;82.68
75457;SHT31;64036;48.266;14.192;2024-01-30T23:51:16;-0.13;82.80
75457;SHT31;64036;48.266;14.192;2024-01-30T23:54:25;-0.18;82.92
